Time;durP1;ratioP1;P1;durP2;ratioP2;P2;SDS_P1;SDS_P2;PMS_P1;PMS_P2;Temp;Humidity;BMP_temperature;BMP_pressure;BME280_temperature;BME280_humidity;BME280_pressure;Samples;Min_cycle;Max_cycle;Signal;HPM_P1;HPM_P2
2023/01/08 00:02:23;;;;;;;3.33;2.08;;;9.70;99.90;;;;;;4901760;29;20139;-84
2023/01/08 00:04:48;;;;;;;5.55;2.15;;;9.20;99.90;;;;;;4864642;29;20052;-83
2023/01/08 00:07:14;;;;;;;4.13;1.70;;;9.10;99.90;;;;;;4891596;29;20036;-82
2023/01/08 00:09:40;;;;;;;5.80;2.25;;;9.20;99.90;;;;;;4901287;29;20039;-82
2023/01/08 00:12:05;;;;;;;4.28;2.28;;;10.60;99.90;;;;;;4894170;29;20052;-81
2023/01/08 00:14:31;;;;;;;5.35;2.10;;;9.10;99.90;;;;;;4894822;29;20032;-85
2023/01/08 00:16:57;;;;;;;3.83;2.30;;;9.10;99.90;;;;;;4894816;29;20338;-84
2023/01/08 00:19:23;;;;;;;3.33;2.08;;;9.10;99.90;;;;;;4901931;29;20462;-82
2023/01/08 00:21:48;;;;;;;4.28;2.92;;;10.30;99.90;;;;;;4891711;29;20041;-83
2023/01/08 00:24:14;;;;;;;3.22;2.22;;;9.20;99.90;;;;;;4879533;29;20465;-83
2023/01/08 00:26:40;;;;;;;3.33;1.67;;;9.20;99.90;;;;;;4863924;29;20128;-83
2023/01/08 00:29:05;;;;;;;4.18;2.25;;;9.20;99.90;;;;;;4893338;29;20055;-84
2023/01/08 00:31:32;;;;;;;2.25;2.05;;;9.20;99.90;;;;;;4876567;29;20045;-83
2023/01/08 00:33:57;;;;;;;3.45;2.47;;;9.20;99.90;;;;;;4879508;29;20032;-84
2023/01/08 00:36:23;;;;;;;2.38;2.10;;;9.50;99.90;;;;;;4875638;29;20096;-82
2023/01/08 00:38:49;;;;;;;1.90;1.80;;;9.30;99.90;;;;;;4901044;29;20131;-84
2023/01/08 00:41:15;;;;;;;4.75;1.67;;;9.20;99.90;;;;;;4894759;29;20087;-82
2023/01/08 00:43:40;;;;;;;3.28;1.83;;;9.40;99.90;;;;;;4903560;29;20087;-83
2023/01/08 00:46:07;;;;;;;4.32;2.10;;;9.20;99.90;;;;;;4877980;29;20103;-83
2023/01/08 00:48:37;;;;;;;1.85;1.73;;;10.70;99.90;;;;;;4891239;29;20037;-82
2023/01/08 00:51:04;;;;;;;2.00;1.73;;;9.20;99.90;;;;;;4878024;29;20179;-83
2023/01/08 00:53:30;;;;;;;4.63;2.53;;;9.20;99.90;;;;;;4879787;29;20040;-83
2023/01/08 00:56:01;;;;;;;3.03;1.90;;;9.10;99.90;;;;;;4879552;29;20147;-83
2023/01/08 00:58:26;;;;;;;2.08;1.60;;;9.20;99.90;;;;;;4904383;29;20032;-83
2023/01/08 01:00:52;;;;;;;3.92;2.30;;;9.20;99.90;;;;;;4899190;29;20067;-83
2023/01/08 01:03:18;;;;;;;3.97;2.45;;;9.20;99.90;;;;;;4897818;29;20066;-82
2023/01/08 01:05:46;;;;;;;4.18;2.17;;;9.80;99.90;;;;;;4892048;29;20048;-84
2023/01/08 01:08:12;;;;;;;2.97;2.10;;;9.20;99.90;;;;;;4878511;29;20049;-83
2023/01/08 01:10:38;;;;;;;3.70;1.80;;;9.30;99.90;;;;;;4894230;29;20040;-82
2023/01/08 01:13:04;;;;;;;2.25;1.75;;;9.60;99.90;;;;;;4903658;29;20055;-82
2023/01/08 01:15:30;;;;;;;2.53;1.45;;;9.10;99.90;;;;;;4876062;29;20056;-84
2023/01/08 01:17:55;;;;;;;2.53;1.20;;;10.70;99.90;;;;;;4891885;29;20413;-83
2023/01/08 01:20:22;;;;;;;2.85;1.55;;;10.60;99.90;;;;;;4895028;29;20445;-84
2023/01/08 01:22:48;;;;;;;3.15;1.75;;;9.10;99.90;;;;;;4895410;29;20051;-84
2023/01/08 01:25:14;;;;;;;5.15;1.20;;;10.30;99.90;;;;;;4880293;29;20519;-84
2023/01/08 01:27:39;;;;;;;2.58;1.20;;;9.10;99.90;;;;;;4895145;29;20393;-83
2023/01/08 01:30:09;;;;;;;4.65;1.65;;;9.00;99.90;;;;;;4880523;29;20143;-84
2023/01/08 01:32:34;;;;;;;4.47;1.77;;;9.10;99.90;;;;;;4897865;29;20102;-83
2023/01/08 01:35:00;;;;;;;3.75;1.73;;;8.90;99.90;;;;;;4898383;29;20051;-83
2023/01/08 01:37:26;;;;;;;3.03;1.35;;;9.10;99.90;;;;;;4894778;29;20092;-83
2023/01/08 01:39:52;;;;;;;3.67;1.85;;;9.10;99.90;;;;;;4894265;29;20056;-83
2023/01/08 01:45:20;;;;;;;4.78;2.13;;;9.90;99.90;;;;;;4897163;29;20102;-82
2023/01/08 01:47:52;;;;;;;4.57;1.83;;;9.10;99.90;;;;;;4903922;29;20072;-82
2023/01/08 01:50:40;;;;;;;3.80;1.52;;;10.80;99.90;;;;;;4881370;29;20045;-83
2023/01/08 01:53:21;;;;;;;4.03;1.50;;;9.10;99.90;;;;;;4897049;29;20052;-82
2023/01/08 01:55:47;;;;;;;4.63;1.98;;;9.10;99.90;;;;;;4903635;29;20048;-82
2023/01/08 01:58:25;;;;;;;4.32;1.67;;;10.60;99.90;;;;;;4905431;29;20093;-83
2023/01/08 02:00:53;;;;;;;5.65;1.80;;;9.00;99.90;;;;;;4881946;29;20044;-82
2023/01/08 02:03:24;;;;;;;5.35;1.63;;;9.00;99.90;;;;;;4897909;29;20141;-82
2023/01/08 02:06:04;;;;;;;7.00;2.25;;;10.30;99.90;;;;;;4881330;29;20428;-83
2023/01/08 02:08:48;;;;;;;4.88;1.20;;;9.00;99.90;;;;;;4867550;29;20036;-84
2023/01/08 02:11:33;;;;;;;7.07;1.73;;;8.90;99.90;;;;;;4880104;29;20058;-82
2023/01/08 02:14:01;;;;;;;;;;;8.90;99.90;;;;;;4903903;29;20515;-83
2023/01/08 02:17:00;;;;;;;5.95;1.45;;;8.90;99.90;;;;;;4896855;29;19930;-83
2023/01/08 02:19:36;;;;;;;8.40;1.83;;;8.80;99.90;;;;;;4862948;29;20127;-83
2023/01/08 02:22:22;;;;;;;5.75;1.45;;;8.80;99.90;;;;;;4878406;29;20136;-81
2023/01/08 02:24:55;;;;;;;11.73;1.58;;;8.70;99.90;;;;;;4885412;29;20069;-82
2023/01/08 02:27:24;;;;;;;7.07;1.85;;;8.70;99.90;;;;;;4894842;29;20517;-82
2023/01/08 02:29:52;;;;;;;6.72;1.50;;;8.70;99.90;;;;;;4897514;29;20044;-83
2023/01/08 02:32:21;;;;;;;7.80;1.70;;;8.70;99.90;;;;;;4895022;29;20052;-83
2023/01/08 02:34:46;;;;;;;7.93;1.92;;;8.70;99.90;;;;;;4893228;29;20032;-84
2023/01/08 02:37:12;;;;;;;8.63;1.50;;;8.60;99.90;;;;;;4895472;29;20071;-83
2023/01/08 02:39:59;;;;;;;12.02;1.83;;;8.60;99.90;;;;;;4904514;29;20059;-83
2023/01/08 02:42:43;;;;;;;5.40;1.45;;;8.50;99.90;;;;;;4880046;29;21619;-84
2023/01/08 02:45:08;;;;;;;8.77;1.92;;;8.60;99.90;;;;;;4878586;29;20080;-84
2023/01/08 02:47:43;;;;;;;12.65;2.60;;;9.60;99.90;;;;;;4905997;29;20091;-85
2023/01/08 02:50:12;;;;;;;9.80;2.33;;;8.40;99.90;;;;;;4896006;29;20044;-84
2023/01/08 02:52:51;;;;;;;10.73;1.73;;;9.30;99.90;;;;;;4902945;29;20048;-84
2023/01/08 02:55:21;;;;;;;9.35;1.58;;;9.30;99.90;;;;;;4878899;29;20459;-84
2023/01/08 02:57:47;;;;;;;13.70;2.33;;;8.40;99.90;;;;;;4881309;29;20258;-83
2023/01/08 03:00:13;;;;;;;12.15;2.00;;;8.30;99.90;;;;;;4896070;29;20058;-82
2023/01/08 03:02:41;;;;;;;13.15;1.90;;;8.30;99.90;;;;;;4902124;29;20047;-84
2023/01/08 03:05:25;;;;;;;9.32;1.80;;;9.10;99.90;;;;;;4902917;29;20050;-83
2023/01/08 03:07:51;;;;;;;15.75;2.13;;;8.10;99.90;;;;;;4906029;29;20119;-83
2023/01/08 03:10:20;;;;;;;11.88;1.80;;;8.20;99.90;;;;;;4894648;29;20051;-84
2023/01/08 03:12:53;;;;;;;9.18;1.35;;;8.30;99.90;;;;;;4896888;29;20047;-83
2023/01/08 03:15:25;;;;;;;8.70;1.45;;;8.20;99.90;;;;;;4895139;29;20051;-82
2023/01/08 03:17:56;;;;;;;7.25;1.70;;;8.20;99.90;;;;;;4892968;29;20049;-81
2023/01/08 03:20:24;;;;;;;11.35;2.25;;;8.10;99.90;;;;;;4895031;29;20040;-83
2023/01/08 03:22:54;;;;;;;7.95;1.33;;;8.10;99.90;;;;;;4905692;29;20047;-82
2023/01/08 03:25:23;;;;;;;7.22;1.75;;;8.30;99.90;;;;;;4904623;29;20052;-82
2023/01/08 03:27:54;;;;;;;8.07;1.75;;;7.90;99.90;;;;;;4895977;29;20048;-84
2023/01/08 03:30:21;;;;;;;13.43;1.67;;;8.00;99.90;;;;;;4903569;29;20040;-83
2023/01/08 03:32:50;;;;;;;7.32;1.65;;;8.00;99.90;;;;;;4902482;29;20115;-84
2023/01/08 03:35:19;;;;;;;9.68;2.00;;;8.00;99.90;;;;;;4878381;29;20157;-83
2023/01/08 03:37:53;;;;;;;9.73;1.75;;;8.00;99.90;;;;;;4879742;29;20401;-84
2023/01/08 03:40:26;;;;;;;8.18;2.03;;;9.80;99.90;;;;;;4894772;29;20080;-84
2023/01/08 03:42:52;;;;;;;10.63;1.60;;;8.00;99.90;;;;;;4893184;29;20052;-83
2023/01/08 03:45:18;;;;;;;11.20;1.85;;;7.90;99.90;;;;;;4892983;29;20052;-82
2023/01/08 03:47:45;;;;;;;12.80;2.22;;;8.10;99.90;;;;;;4879268;29;20044;-81
2023/01/08 03:50:16;;;;;;;7.57;1.40;;;8.00;99.90;;;;;;4880275;29;20040;-82
2023/01/08 03:52:42;;;;;;;13.23;2.30;;;8.20;99.90;;;;;;4878081;29;20051;-83
2023/01/08 03:55:08;;;;;;;14.73;2.20;;;8.80;99.90;;;;;;4901952;29;20155;-83
2023/01/08 03:57:35;;;;;;;7.28;1.90;;;7.90;99.90;;;;;;4903838;29;20052;-82
2023/01/08 04:00:01;;;;;;;16.35;1.40;;;7.90;99.90;;;;;;4895046;29;20084;-82
2023/01/08 04:02:26;;;;;;;8.60;1.52;;;7.90;99.90;;;;;;4877171;29;20370;-82
2023/01/08 04:04:52;;;;;;;9.35;1.38;;;7.90;99.90;;;;;;4892035;29;20052;-81
2023/01/08 04:07:18;;;;;;;8.05;1.15;;;7.90;99.90;;;;;;4876674;29;20052;-83
2023/01/08 04:09:43;;;;;;;16.48;1.80;;;7.90;99.90;;;;;;4904689;29;20512;-84
2023/01/08 04:12:09;;;;;;;6.55;1.50;;;7.80;99.90;;;;;;4880539;29;20464;-84
2023/01/08 04:14:34;;;;;;;9.43;1.00;;;7.90;99.90;;;;;;4891907;29;20532;-83
2023/01/08 04:17:00;;;;;;;6.65;1.60;;;7.80;99.90;;;;;;4906002;29;20050;-85
2023/01/08 04:19:26;;;;;;;7.25;1.40;;;7.80;99.90;;;;;;4909442;29;20347;-84
2023/01/08 04:21:52;;;;;;;3.55;1.25;;;8.80;99.90;;;;;;4905661;29;20448;-84
2023/01/08 04:24:18;;;;;;;7.30;2.03;;;7.90;99.90;;;;;;4879482;29;20049;-83
2023/01/08 04:26:44;;;;;;;7.45;1.38;;;9.20;99.90;;;;;;4875739;29;20110;-83
2023/01/08 04:29:11;;;;;;;5.70;1.30;;;7.80;99.90;;;;;;4892427;29;20493;-82
2023/01/08 04:31:37;;;;;;;5.00;1.52;;;7.60;99.90;;;;;;4904118;29;20087;-83
2023/01/08 04:34:02;;;;;;;3.05;0.93;;;7.80;99.90;;;;;;4879188;29;20111;-82
2023/01/08 04:36:28;;;;;;;8.00;2.40;;;9.00;99.90;;;;;;4902463;29;20123;-82
2023/01/08 04:38:54;;;;;;;3.83;1.77;;;7.90;99.90;;;;;;4876969;29;20056;-84
2023/01/08 04:41:19;;;;;;;4.63;1.45;;;7.80;99.90;;;;;;4900969;29;20057;-84
2023/01/08 04:43:45;;;;;;;5.75;1.88;;;7.80;99.90;;;;;;4879849;29;20051;-85
2023/01/08 04:46:11;;;;;;;3.83;1.75;;;9.00;99.90;;;;;;4894784;29;20140;-84
2023/01/08 04:48:36;;;;;;;7.88;1.77;;;7.90;99.90;;;;;;4901032;29;20057;-83
2023/01/08 04:51:03;;;;;;;8.15;1.83;;;7.80;99.90;;;;;;4876634;29;20036;-83
2023/01/08 04:53:32;;;;;;;4.90;1.38;;;7.90;99.90;;;;;;4877657;29;20084;-83
2023/01/08 04:56:06;;;;;;;7.72;1.80;;;7.80;99.90;;;;;;4878860;29;20052;-84
2023/01/08 04:58:33;;;;;;;5.97;1.90;;;7.90;99.90;;;;;;4894967;29;20575;-83
2023/01/08 05:00:59;;;;;;;5.22;1.77;;;7.80;99.90;;;;;;4905069;29;20179;-82
2023/01/08 05:03:24;;;;;;;4.85;1.73;;;7.90;99.90;;;;;;4895441;29;20135;-81
2023/01/08 05:05:50;;;;;;;4.25;1.50;;;8.20;99.90;;;;;;4898348;29;20048;-84
2023/01/08 05:08:16;;;;;;;4.80;1.67;;;8.30;99.90;;;;;;4883341;29;20044;-83
2023/01/08 05:10:41;;;;;;;4.63;1.92;;;8.30;99.90;;;;;;4894972;29;20045;-84
2023/01/08 05:13:07;;;;;;;4.90;1.65;;;9.20;99.90;;;;;;4896042;29;20089;-84
2023/01/08 05:15:33;;;;;;;2.92;1.60;;;8.10;99.90;;;;;;4906495;29;20440;-84
2023/01/08 05:18:04;;;;;;;7.10;1.38;;;7.80;99.90;;;;;;4907796;29;20424;-83
2023/01/08 05:20:31;;;;;;;5.45;1.92;;;7.90;99.90;;;;;;4881789;29;20448;-83
2023/01/08 05:22:57;;;;;;;6.10;1.50;;;7.90;99.90;;;;;;4895112;29;20063;-83
2023/01/08 05:25:23;;;;;;;3.75;1.33;;;7.90;99.90;;;;;;4879747;29;20036;-83
2023/01/08 05:27:49;;;;;;;3.38;1.27;;;7.90;99.90;;;;;;4907418;29;20056;-83
2023/01/08 05:30:15;;;;;;;7.68;2.33;;;8.40;99.90;;;;;;4897726;29;20047;-83
2023/01/08 05:32:40;;;;;;;6.20;1.42;;;7.90;99.90;;;;;;4904732;29;20564;-82
2023/01/08 05:35:08;;;;;;;4.20;1.58;;;8.00;99.90;;;;;;4895041;29;20045;-84
2023/01/08 05:37:34;;;;;;;7.50;1.80;;;8.00;99.90;;;;;;4865234;29;20052;-84
2023/01/08 05:40:01;;;;;;;7.65;1.85;;;8.00;99.90;;;;;;4887083;29;20084;-82
2023/01/08 05:42:29;;;;;;;5.72;1.25;;;8.70;99.90;;;;;;4870797;29;20048;-83
2023/01/08 05:44:55;;;;;;;4.82;1.52;;;8.00;99.90;;;;;;4883350;29;20063;-83
2023/01/08 05:47:21;;;;;;;4.55;1.60;;;8.00;99.90;;;;;;4883906;29;20410;-84
2023/01/08 05:49:46;;;;;;;4.40;1.17;;;8.00;99.90;;;;;;4871513;29;20503;-83
2023/01/08 05:52:12;;;;;;;3.75;1.35;;;8.00;99.90;;;;;;4886712;29;20048;-84
2023/01/08 05:54:38;;;;;;;4.15;1.23;;;9.70;99.90;;;;;;4885250;29;20045;-82
2023/01/08 05:57:03;;;;;;;4.57;1.35;;;9.50;99.90;;;;;;4892650;29;20111;-83
2023/01/08 05:59:29;;;;;;;3.95;1.20;;;6.60;99.90;;;;;;4871328;29;20516;-84
2023/01/08 06:01:54;;;;;;;3.60;1.50;;;7.90;99.90;;;;;;4889243;29;20123;-83
2023/01/08 06:04:20;;;;;;;3.83;1.58;;;7.90;99.90;;;;;;4887800;29;20044;-82
2023/01/08 06:06:45;;;;;;;7.72;1.20;;;7.90;99.90;;;;;;4867416;29;20097;-83
2023/01/08 06:09:12;;;;;;;4.65;1.05;;;8.00;99.90;;;;;;4882957;29;20183;-83
2023/01/08 06:11:37;;;;;;;5.65;1.58;;;8.00;99.90;;;;;;4869378;29;20057;-84
2023/01/08 06:14:03;;;;;;;4.35;0.90;;;8.00;99.90;;;;;;4886493;29;20052;-84
2023/01/08 06:16:28;;;;;;;5.45;1.13;;;7.90;99.90;;;;;;4885424;29;20567;-84
2023/01/08 06:18:54;;;;;;;4.45;0.98;;;8.00;99.90;;;;;;4883749;29;20053;-85
2023/01/08 06:21:20;;;;;;;3.20;1.00;;;8.50;99.90;;;;;;4882787;29;20417;-83
2023/01/08 06:23:45;;;;;;;5.03;1.25;;;9.10;99.90;;;;;;4883495;29;20037;-82
2023/01/08 06:26:11;;;;;;;6.38;1.10;;;7.90;99.90;;;;;;4882240;29;20053;-81
2023/01/08 06:28:36;;;;;;;7.68;1.40;;;7.80;99.90;;;;;;4884983;29;20490;-82
2023/01/08 06:31:03;;;;;;;5.50;1.30;;;7.90;99.90;;;;;;4886728;29;20174;-82
2023/01/08 06:33:29;;;;;;;8.70;1.42;;;7.90;99.90;;;;;;4885228;29;20048;-82
2023/01/08 06:36:03;;;;;;;4.65;1.60;;;9.40;99.90;;;;;;4884099;29;20049;-83
2023/01/08 06:38:35;;;;;;;5.07;1.48;;;7.80;99.90;;;;;;4869835;29;20164;-84
2023/01/08 06:41:07;;;;;;;2.28;0.95;;;7.80;99.90;;;;;;4880924;29;20048;-84
2023/01/08 06:43:33;;;;;;;4.63;1.50;;;7.80;99.90;;;;;;4880659;29;20086;-84
2023/01/08 06:45:59;;;;;;;5.47;1.55;;;7.70;99.90;;;;;;4893969;29;20454;-83
2023/01/08 06:48:25;;;;;;;4.57;1.40;;;7.80;99.90;;;;;;4892771;29;20040;-82
2023/01/08 06:50:52;;;;;;;2.78;1.10;;;7.70;99.90;;;;;;4881539;29;20154;-84
2023/01/08 06:53:18;;;;;;;3.95;1.33;;;7.70;99.90;;;;;;4896875;29;20040;-83
2023/01/08 06:55:43;;;;;;;8.75;1.75;;;7.70;99.90;;;;;;4878881;29;20497;-83
2023/01/08 06:58:13;;;;;;;6.50;1.70;;;8.70;99.90;;;;;;4878498;29;20040;-81
2023/01/08 07:00:39;;;;;;;2.90;1.33;;;7.70;99.90;;;;;;4879267;29;20049;-83
2023/01/08 07:03:05;;;;;;;3.28;1.45;;;7.70;99.90;;;;;;4893631;29;20267;-82
2023/01/08 07:05:31;;;;;;;4.60;1.67;;;7.70;99.90;;;;;;4895900;29;20040;-83
2023/01/08 07:07:57;;;;;;;10.00;1.92;;;7.70;99.90;;;;;;4893648;29;20428;-83
2023/01/08 07:10:22;;;;;;;7.00;1.42;;;7.60;99.90;;;;;;4892421;29;20037;-84
2023/01/08 07:12:48;;;;;;;8.75;2.15;;;8.10;99.90;;;;;;4896272;29;20080;-84
2023/01/08 07:15:15;;;;;;;4.38;1.73;;;7.70;99.90;;;;;;4895240;29;20544;-83
2023/01/08 07:17:40;;;;;;;5.88;1.63;;;7.70;99.90;;;;;;4897756;29;20377;-83
2023/01/08 07:20:08;;;;;;;4.43;1.60;;;7.60;99.90;;;;;;4880753;29;20047;-83
2023/01/08 07:22:34;;;;;;;5.82;1.80;;;7.60;99.90;;;;;;4904335;29;20048;-83
2023/01/08 07:25:00;;;;;;;5.20;1.55;;;8.90;99.90;;;;;;4877116;29;20405;-83
2023/01/08 07:27:26;;;;;;;2.10;1.52;;;7.60;99.90;;;;;;4878027;29;20106;-83
2023/01/08 07:29:51;;;;;;;7.05;1.63;;;7.60;99.90;;;;;;4895203;29;20441;-82
2023/01/08 07:32:17;;;;;;;4.68;2.95;;;7.50;99.90;;;;;;4880161;29;20090;-83
2023/01/08 07:34:42;;;;;;;11.88;7.20;;;7.50;99.90;;;;;;4904840;29;20040;-83
2023/01/08 07:37:08;;;;;;;5.10;2.03;;;7.50;99.90;;;;;;4910535;29;20062;-81
2023/01/08 07:39:34;;;;;;;7.18;1.67;;;7.50;99.90;;;;;;4893387;29;20115;-83
2023/01/08 07:41:59;;;;;;;4.82;1.25;;;7.50;99.90;;;;;;4897122;29;20449;-84
2023/01/08 07:44:26;;;;;;;5.95;1.60;;;7.40;99.90;;;;;;4904024;29;20153;-84
2023/01/08 07:46:52;;;;;;;9.48;2.10;;;7.40;99.90;;;;;;4877964;29;20059;-83
2023/01/08 07:49:17;;;;;;;4.13;1.77;;;7.40;99.90;;;;;;4892469;29;20521;-83
2023/01/08 07:51:43;;;;;;;9.15;2.35;;;7.40;99.90;;;;;;4902890;29;20048;-83
2023/01/08 07:54:09;;;;;;;6.68;3.28;;;7.40;99.90;;;;;;4880488;29;20052;-82
2023/01/08 07:56:34;;;;;;;7.80;2.40;;;7.40;99.90;;;;;;4895881;29;20055;-84
2023/01/08 07:59:00;;;;;;;9.70;3.13;;;7.40;99.90;;;;;;4877127;29;20526;-84
2023/01/08 08:01:25;;;;;;;4.40;2.78;;;7.30;99.90;;;;;;4901559;29;20079;-83
2023/01/08 08:03:51;;;;;;;6.72;3.13;;;7.40;99.90;;;;;;4894997;29;20079;-83
2023/01/08 08:06:17;;;;;;;11.82;5.82;;;7.30;99.90;;;;;;4903565;29;20043;-83
2023/01/08 08:08:43;;;;;;;160.77;142.35;;;8.70;99.90;;;;;;4904059;29;20033;-84
2023/01/08 08:11:09;;;;;;;10.30;4.93;;;8.60;99.90;;;;;;4892416;29;20041;-83
2023/01/08 08:13:41;;;;;;;7.50;3.00;;;7.30;99.90;;;;;;4891872;29;20545;-83
2023/01/08 08:16:07;;;;;;;5.97;2.40;;;7.20;99.90;;;;;;4879892;29;20043;-84
2023/01/08 08:18:33;;;;;;;9.65;2.30;;;8.00;99.90;;;;;;4894932;29;20040;-82
2023/01/08 08:20:58;;;;;;;3.53;1.75;;;7.20;99.90;;;;;;4892889;29;20538;-82
2023/01/08 08:23:24;;;;;;;7.65;2.25;;;8.40;99.90;;;;;;4891803;29;20040;-82
2023/01/08 08:25:50;;;;;;;10.88;2.45;;;7.20;99.90;;;;;;4877191;29;20112;-82
2023/01/08 08:28:17;;;;;;;4.35;1.83;;;7.30;99.90;;;;;;4895460;29;20039;-82
2023/01/08 08:30:43;;;;;;;6.70;2.33;;;7.20;99.90;;;;;;4894764;29;20072;-82
2023/01/08 08:33:09;;;;;;;6.47;2.03;;;7.20;99.90;;;;;;4894062;29;20091;-82
2023/01/08 08:35:35;;;;;;;9.32;2.08;;;7.20;99.90;;;;;;4897946;29;20420;-82
2023/01/08 08:38:01;;;;;;;6.95;1.98;;;8.30;99.90;;;;;;4901265;29;20054;-83
2023/01/08 08:40:26;;;;;;;7.40;2.00;;;7.20;99.90;;;;;;4909258;29;20135;-82
2023/01/08 08:43:00;;;;;;;7.35;1.60;;;7.10;99.90;;;;;;4884721;29;20086;-82
2023/01/08 08:45:27;;;;;;;6.47;1.48;;;7.10;99.90;;;;;;4897449;29;20044;-82
2023/01/08 08:47:52;;;;;;;8.60;2.05;;;7.10;99.90;;;;;;4908584;29;20049;-82
2023/01/08 08:50:18;;;;;;;6.13;1.48;;;7.10;99.90;;;;;;4900708;29;20047;-82
2023/01/08 08:52:44;;;;;;;6.05;1.83;;;7.20;99.90;;;;;;4885662;29;20043;-82
2023/01/08 08:55:15;;;;;;;9.35;2.35;;;7.20;99.90;;;;;;4893349;29;20556;-82
2023/01/08 08:57:45;;;;;;;9.70;1.85;;;7.20;99.90;;;;;;4904028;29;20056;-82
2023/01/08 09:00:12;;;;;;;7.45;1.60;;;7.10;99.90;;;;;;4875331;29;20029;-82
2023/01/08 09:02:37;;;;;;;8.30;1.55;;;7.20;99.90;;;;;;4897536;29;20058;-82
2023/01/08 09:05:04;;;;;;;5.75;1.35;;;7.20;99.90;;;;;;4900564;29;20119;-82
2023/01/08 09:07:29;;;;;;;8.93;1.77;;;7.20;99.90;;;;;;4910050;29;20055;-82
2023/01/08 09:09:55;;;;;;;6.65;2.00;;;7.60;99.90;;;;;;4908426;29;20044;-82
2023/01/08 09:12:20;;;;;;;7.32;1.60;;;7.20;99.90;;;;;;4882288;29;20523;-82
2023/01/08 09:14:48;;;;;;;7.70;1.35;;;7.30;99.90;;;;;;4897994;29;20033;-83
2023/01/08 09:17:14;;;;;;;6.30;1.50;;;7.30;99.90;;;;;;4910493;29;20102;-82
2023/01/08 09:19:40;;;;;;;5.20;1.92;;;7.30;99.90;;;;;;4901914;29;20048;-83
2023/01/08 09:22:05;;;;;;;4.47;1.40;;;7.30;99.90;;;;;;4907381;29;20255;-83
2023/01/08 09:24:34;;;;;;;9.57;1.77;;;7.30;99.90;;;;;;4881895;29;20103;-83
2023/01/08 09:27:00;;;;;;;5.72;1.25;;;7.40;99.90;;;;;;4883959;29;20060;-83
2023/01/08 09:29:25;;;;;;;6.07;1.40;;;8.60;99.90;;;;;;4899683;29;20139;-83
2023/01/08 09:31:51;;;;;;;10.95;1.38;;;7.40;99.90;;;;;;4909785;29;20047;-83
2023/01/08 09:34:17;;;;;;;10.15;1.95;;;7.40;99.90;;;;;;4897594;29;20099;-83
2023/01/08 09:36:42;;;;;;;11.85;1.88;;;7.40;99.90;;;;;;4897534;29;20627;-83
2023/01/08 09:39:09;;;;;;;7.57;1.27;;;7.40;99.90;;;;;;4900705;29;20044;-84
2023/01/08 09:41:42;;;;;;;6.32;1.30;;;8.30;99.90;;;;;;4901583;29;20071;-83
2023/01/08 09:44:18;;;;;;;9.18;1.42;;;7.40;99.90;;;;;;4881032;29;20037;-84
2023/01/08 09:46:45;;;;;;;8.35;1.98;;;7.40;99.90;;;;;;4903988;29;20104;-84
2023/01/08 09:49:27;;;;;;;8.57;1.25;;;7.40;99.90;;;;;;4904156;29;20072;-83
2023/01/08 09:51:53;;;;;;;6.85;1.27;;;7.50;99.90;;;;;;4904312;29;20044;-85
2023/01/08 09:54:23;;;;;;;6.32;1.70;;;7.60;99.90;;;;;;4897432;29;20152;-84
2023/01/08 09:56:49;;;;;;;6.03;1.17;;;7.50;99.90;;;;;;4882066;29;20516;-84
2023/01/08 09:59:17;;;;;;;10.75;1.50;;;7.60;99.90;;;;;;4906555;29;20044;-85
2023/01/08 10:01:44;;;;;;;7.18;1.70;;;7.60;99.90;;;;;;4906971;29;20123;-84
2023/01/08 10:04:16;;;;;;;7.15;3.17;;;7.60;99.90;;;;;;4894252;29;20052;-85
2023/01/08 10:07:11;;;;;;;12.85;2.20;;;7.60;99.90;;;;;;4903637;29;20505;-84
2023/01/08 10:09:40;;;;;;;8.73;1.52;;;7.60;99.90;;;;;;4878764;29;20049;-85
2023/01/08 10:12:09;;;;;;;6.93;1.52;;;9.10;99.90;;;;;;4880643;29;20195;-83
2023/01/08 10:14:36;;;;;;;7.63;1.17;;;7.70;99.90;;;;;;4881942;29;20460;-85
2023/01/08 10:17:11;;;;;;;7.95;1.25;;;7.80;99.90;;;;;;4896137;29;20508;-85
2023/01/08 10:19:37;;;;;;;10.77;1.98;;;9.10;99.90;;;;;;4902845;29;20090;-84
2023/01/08 10:22:13;;;;;;;8.30;1.83;;;8.70;99.90;;;;;;4905019;29;20501;-85
2023/01/08 10:24:39;;;;;;;9.18;0.88;;;8.90;99.90;;;;;;4906860;29;20047;-85
2023/01/08 10:27:15;;;;;;;6.72;1.70;;;8.40;99.90;;;;;;4894839;29;20048;-85
2023/01/08 10:29:41;;;;;;;9.55;2.25;;;7.90;99.90;;;;;;4894280;29;20045;-85
2023/01/08 10:32:15;;;;;;;5.30;1.08;;;7.80;99.90;;;;;;4880100;29;20055;-84
2023/01/08 10:34:54;;;;;;;9.00;2.03;;;8.50;99.90;;;;;;4897062;29;20043;-85
2023/01/08 10:37:28;;;;;;;10.80;1.98;;;8.10;99.90;;;;;;4878765;29;20323;-84
2023/01/08 10:40:01;;;;;;;10.88;2.25;;;7.90;99.90;;;;;;4885553;29;20072;-82
2023/01/08 10:42:32;;;;;;;11.35;1.98;;;7.90;99.90;;;;;;4877579;29;20298;-83
2023/01/08 10:45:03;;;;;;;14.55;1.98;;;9.50;99.90;;;;;;4884638;29;20406;-83
2023/01/08 10:47:32;;;;;;;11.90;1.98;;;8.00;99.90;;;;;;4885261;29;20568;-84
2023/01/08 10:49:59;;;;;;;16.80;2.35;;;8.80;99.90;;;;;;4873333;29;20052;-82
2023/01/08 10:52:42;;;;;;;9.40;2.53;;;8.00;99.90;;;;;;4870258;29;20103;-85
2023/01/08 10:55:21;;;;;;;11.57;1.95;;;8.00;99.90;;;;;;4868988;29;20056;-83
2023/01/08 10:58:02;;;;;;;11.90;2.60;;;8.10;99.90;;;;;;4870624;29;20135;-83
2023/01/08 11:00:30;;;;;;;9.02;1.65;;;8.10;99.90;;;;;;4875941;29;20048;-83
2023/01/08 11:02:59;;;;;;;10.90;2.05;;;8.20;99.90;;;;;;4884218;29;20049;-82
2023/01/08 11:05:31;;;;;;;14.43;2.33;;;8.20;99.90;;;;;;4890463;29;20374;-83
2023/01/08 11:07:58;;;;;;;16.00;2.67;;;8.20;99.90;;;;;;4881843;29;20075;-83
2023/01/08 11:10:25;;;;;;;6.63;1.45;;;8.20;99.90;;;;;;4867031;29;20124;-83
2023/01/08 11:13:00;;;;;;;9.70;1.83;;;8.20;99.90;;;;;;4882626;29;20057;-83
2023/01/08 11:15:28;;;;;;;;;;;8.20;99.90;;;;;;4858629;29;20156;-84
2023/01/08 11:18:02;;;;;;;9.48;2.05;;;8.20;99.90;;;;;;4866898;29;19927;-83
2023/01/08 11:20:29;;;;;;;11.88;1.88;;;9.50;99.90;;;;;;4874773;29;20037;-84
2023/01/08 11:23:20;;;;;;;5.13;1.80;;;8.20;99.90;;;;;;4873490;29;20084;-83
2023/01/08 11:25:59;;;;;;;11.13;2.50;;;8.30;99.90;;;;;;4876772;29;20139;-85
2023/01/08 11:28:37;;;;;;;11.85;1.65;;;8.30;99.90;;;;;;4885740;29;20063;-87
2023/01/08 11:31:13;;;;;;;16.88;2.50;;;9.30;99.90;;;;;;4869696;29;20108;-82
2023/01/08 11:33:43;;;;;;;9.98;1.90;;;8.30;99.90;;;;;;4866547;29;20041;-84
2023/01/08 11:36:32;;;;;;;6.65;1.40;;;8.30;99.90;;;;;;4866590;29;20041;-84
2023/01/08 11:38:58;;;;;;;10.57;2.28;;;9.00;99.90;;;;;;4885415;29;20551;-85
2023/01/08 11:41:50;;;;;;;13.68;2.83;;;8.40;99.90;;;;;;4866176;29;20076;-85
2023/01/08 11:44:37;;;;;;;10.68;1.60;;;8.30;99.90;;;;;;4884309;29;20394;-85
2023/01/08 11:47:42;;;;;;;9.48;1.90;;;8.30;99.90;;;;;;4869517;29;20603;-84
2023/01/08 11:50:28;;;;;;;13.88;2.17;;;8.30;99.90;;;;;;4863836;29;20055;-85
2023/01/08 11:53:25;;;;;;;15.75;2.08;;;9.40;99.90;;;;;;4885269;29;20120;-84
2023/01/08 11:56:20;;;;;;;12.00;2.00;;;8.30;99.90;;;;;;4866406;29;20124;-83
2023/01/08 11:58:50;;;;;;;8.30;2.08;;;8.40;99.90;;;;;;4860317;29;20037;-85
2023/01/08 12:01:42;;;;;;;7.65;1.73;;;8.30;99.90;;;;;;4867472;29;20119;-84
2023/01/08 12:04:23;;;;;;;10.30;2.03;;;8.40;99.90;;;;;;4885003;29;20517;-82
2023/01/08 12:06:52;;;;;;;10.20;2.15;;;8.40;99.90;;;;;;4881580;29;20048;-83
2023/01/08 12:09:25;;;;;;;10.38;1.70;;;8.80;99.90;;;;;;4866815;29;20041;-84
2023/01/08 12:12:00;;;;;;;12.80;1.90;;;9.10;99.90;;;;;;4868998;29;20040;-85
2023/01/08 12:14:38;;;;;;;13.15;1.92;;;8.40;99.90;;;;;;4881951;29;20573;-85
2023/01/08 12:17:36;;;;;;;14.13;2.15;;;8.40;99.90;;;;;;4882788;29;20484;-83
2023/01/08 12:20:35;;;;;;;9.32;1.92;;;8.40;99.90;;;;;;4865173;29;20049;-84
2023/01/08 12:23:42;;;;;;;7.43;2.08;;;8.40;99.90;;;;;;4866004;29;20059;-82
2023/01/08 12:26:38;;;;;;;10.20;1.90;;;8.40;99.90;;;;;;4597973;29;10001328;-82
2023/01/08 12:29:26;;;;;;;13.27;2.10;;;8.50;99.90;;;;;;4874524;29;20319;-84
2023/01/08 12:31:58;;;;;;;12.32;2.72;;;8.50;99.90;;;;;;4871492;29;20053;-83
2023/01/08 12:34:53;;;;;;;10.88;2.70;;;8.40;99.90;;;;;;4888263;29;20059;-83
2023/01/08 12:37:45;;;;;;;11.23;1.90;;;9.90;99.90;;;;;;4848667;29;20489;-82
2023/01/08 12:40:25;;;;;;;11.35;2.38;;;10.00;99.90;;;;;;4878311;29;20159;-82
2023/01/08 12:42:51;;;;;;;12.95;1.92;;;8.50;99.90;;;;;;4874876;29;20052;-83
2023/01/08 12:45:27;;;;;;;8.27;1.77;;;10.10;99.90;;;;;;4858905;29;20327;-83
2023/01/08 12:48:04;;;;;;;20.55;2.58;;;8.50;99.90;;;;;;4875424;29;20500;-83
2023/01/08 12:50:56;;;;;;;12.15;2.10;;;8.50;99.90;;;;;;4876621;29;20088;-83
2023/01/08 12:53:48;;;;;;;9.75;2.35;;;8.40;99.90;;;;;;4869069;29;20049;-83
2023/01/08 12:56:21;;;;;;;8.95;2.03;;;8.50;99.90;;;;;;4870139;29;20414;-83
2023/01/08 12:59:03;;;;;;;7.20;1.98;;;8.40;99.90;;;;;;4876619;29;20055;-84
2023/01/08 13:02:26;;;;;;;9.20;1.75;;;9.80;99.90;;;;;;4857480;29;20091;-81
2023/01/08 13:04:52;;;;;;;14.18;1.90;;;8.50;99.90;;;;;;4826191;29;20078;-85
2023/01/08 13:07:22;;;;;;;7.78;1.48;;;8.50;99.90;;;;;;4829279;29;20054;-83
2023/01/08 13:10:17;;;;;;;11.50;2.67;;;8.50;99.90;;;;;;4847636;29;20160;-84
2023/01/08 13:12:50;;;;;;;8.45;1.70;;;8.50;99.90;;;;;;4873550;29;20099;-85
2023/01/08 13:15:25;;;;;;;7.13;1.92;;;8.50;99.90;;;;;;4882559;29;20051;-85